createdAt,value
2022-12-16T00:01:15.977Z,-7.20
2022-12-16T00:03:47.876Z,-7.20
2022-12-16T00:06:15.889Z,-7.20
2022-12-16T00:08:43.917Z,-7.20
2022-12-16T00:11:11.841Z,-7.30
2022-12-16T00:13:41.166Z,-7.30
2022-12-16T00:16:11.299Z,-7.30
2022-12-16T00:18:40.893Z,-7.30
2022-12-16T00:21:09.393Z,-7.30
2022-12-16T00:23:39.273Z,-7.30
2022-12-16T00:26:07.450Z,-7.30
2022-12-16T00:28:36.217Z,-7.30
2022-12-16T00:31:04.329Z,-7.30
2022-12-16T00:33:33.058Z,-7.30
2022-12-16T00:36:03.071Z,-7.20
2022-12-16T00:38:30.831Z,-7.20
2022-12-16T00:40:58.536Z,-7.30
2022-12-16T00:43:26.259Z,-7.30
2022-12-16T00:45:54.017Z,-7.20
2022-12-16T00:48:23.145Z,-7.20
2022-12-16T00:50:53.045Z,-7.20
2022-12-16T00:53:25.841Z,-7.20
2022-12-16T00:55:54.011Z,-7.20
2022-12-16T00:58:21.700Z,-7.20
2022-12-16T01:00:49.456Z,-7.20
2022-12-16T01:03:21.489Z,-7.20
2022-12-16T01:05:50.163Z,-7.20
2022-12-16T01:08:18.297Z,-7.30
2022-12-16T01:10:52.868Z,-7.30
2022-12-16T01:13:24.191Z,-7.30
2022-12-16T01:15:52.521Z,-7.30
2022-12-16T01:18:20.540Z,-7.40
2022-12-16T01:20:48.276Z,-7.40
2022-12-16T01:23:15.976Z,-7.40
2022-12-16T01:25:43.705Z,-7.40
2022-12-16T01:28:12.774Z,-7.40
2022-12-16T01:30:40.507Z,-7.50
2022-12-16T01:33:08.345Z,-7.50
2022-12-16T01:35:55.306Z,-7.50
2022-12-16T01:38:23.935Z,-7.50
2022-12-16T01:40:52.520Z,-7.50
2022-12-16T01:43:25.957Z,-7.50
2022-12-16T01:48:56.296Z,-7.50
2022-12-16T01:51:29.496Z,-7.50
2022-12-16T01:53:59.511Z,-7.50
2022-12-16T01:56:32.590Z,-7.50
2022-12-16T01:59:02.743Z,-7.50
2022-12-16T02:01:30.613Z,-7.60
2022-12-16T02:04:02.321Z,-7.60
2022-12-16T02:06:30.572Z,-7.60
2022-12-16T02:09:01.472Z,-7.60
2022-12-16T02:11:57.462Z,-7.60
2022-12-16T02:14:45.554Z,-7.60
2022-12-16T02:17:18.043Z,-7.60
2022-12-16T02:20:29.702Z,-7.60
2022-12-16T02:23:15.955Z,-7.50
2022-12-16T02:26:05.086Z,-7.60
2022-12-16T02:28:50.993Z,-7.60
2022-12-16T02:31:30.766Z,-7.60
2022-12-16T02:34:10.125Z,-7.60
2022-12-16T02:36:48.468Z,-7.70
2022-12-16T02:39:21.955Z,-7.70
2022-12-16T02:41:54.725Z,-7.80
2022-12-16T02:44:30.619Z,-7.80
2022-12-16T02:46:59.683Z,-7.80
2022-12-16T02:49:47.702Z,-7.80
2022-12-16T02:52:16.860Z,-7.80
2022-12-16T02:54:45.879Z,-7.80
2022-12-16T02:57:29.566Z,-7.80
2022-12-16T03:00:03.809Z,-7.80
2022-12-16T03:02:39.229Z,-7.80
2022-12-16T03:05:12.397Z,-7.80
2022-12-16T03:07:41.946Z,-7.80
2022-12-16T03:10:14.903Z,-7.80
2022-12-16T03:12:45.356Z,-7.80
2022-12-16T03:15:16.613Z,-7.80
2022-12-16T03:17:48.707Z,-7.90
2022-12-16T03:20:20.142Z,-7.90
2022-12-16T03:22:51.786Z,-7.80
2022-12-16T03:25:22.059Z,-7.80
2022-12-16T03:27:57.710Z,-7.80
2022-12-16T03:30:29.599Z,-7.80
2022-12-16T03:33:02.955Z,-7.80
2022-12-16T03:35:35.632Z,-7.80
2022-12-16T03:38:05.366Z,-7.80
2022-12-16T03:40:34.707Z,-7.90
2022-12-16T03:43:04.110Z,-7.90
2022-12-16T03:45:36.752Z,-7.90
2022-12-16T03:48:09.261Z,-7.90
2022-12-16T03:50:39.359Z,-7.80
2022-12-16T03:53:08.105Z,-7.80
2022-12-16T03:55:36.377Z,-7.80
2022-12-16T03:58:04.112Z,-7.80
2022-12-16T04:00:31.882Z,-7.80
2022-12-16T04:02:59.911Z,-7.80
2022-12-16T04:05:29.135Z,-7.80
2022-12-16T04:08:01.753Z,-7.90
2022-12-16T04:10:43.847Z,-7.90
2022-12-16T04:13:30.153Z,-7.90
2022-12-16T04:16:12.156Z,-7.90
2022-12-16T04:18:59.202Z,-7.90
2022-12-16T04:21:57.660Z,-7.90
2022-12-16T04:24:28.153Z,-8.00
2022-12-16T04:27:15.650Z,-8.00
2022-12-16T04:29:58.046Z,-8.00
2022-12-16T04:32:26.491Z,-8.10
2022-12-16T04:34:53.255Z,-8.10
2022-12-16T04:37:45.329Z,-8.10
2022-12-16T04:40:30.934Z,-8.10
2022-12-16T04:43:16.342Z,-8.10
2022-12-16T04:46:05.218Z,-8.10
2022-12-16T04:48:50.727Z,-8.20
2022-12-16T04:51:35.778Z,-8.20
2022-12-16T04:54:37.159Z,-8.20
2022-12-16T04:57:22.733Z,-8.20
2022-12-16T05:00:07.829Z,-8.20
2022-12-16T05:03:04.602Z,-8.30
2022-12-16T05:05:55.249Z,-8.30
2022-12-16T05:08:40.693Z,-8.30
2022-12-16T05:11:27.231Z,-8.30
2022-12-16T05:14:12.413Z,-8.30
2022-12-16T05:16:57.499Z,-8.40
2022-12-16T05:19:42.614Z,-8.40
2022-12-16T05:22:27.738Z,-8.40
2022-12-16T05:25:12.810Z,-8.40
2022-12-16T05:27:59.658Z,-8.40
2022-12-16T05:30:44.975Z,-8.40
2022-12-16T05:33:30.416Z,-8.40
2022-12-16T05:36:15.705Z,-8.50
2022-12-16T05:39:00.945Z,-8.50
2022-12-16T05:41:46.346Z,-8.50
2022-12-16T05:44:32.910Z,-8.40
2022-12-16T05:47:18.241Z,-8.50
2022-12-16T05:50:03.762Z,-8.50
2022-12-16T05:52:49.076Z,-8.50
2022-12-16T05:55:34.840Z,-8.40
2022-12-16T05:58:20.371Z,-8.40
2022-12-16T06:01:03.404Z,-8.40
2022-12-16T06:03:49.091Z,-8.40
2022-12-16T06:06:34.532Z,-8.40
2022-12-16T06:09:19.956Z,-8.40
2022-12-16T06:12:10.462Z,-8.40
2022-12-16T06:14:55.585Z,-8.30
2022-12-16T06:17:42.144Z,-8.30
2022-12-16T06:20:27.970Z,-8.30
2022-12-16T06:23:14.054Z,-8.30
2022-12-16T06:25:59.746Z,-8.30
2022-12-16T06:28:46.133Z,-8.30
2022-12-16T06:31:32.086Z,-8.20
2022-12-16T06:34:19.030Z,-8.20
2022-12-16T06:37:04.223Z,-8.20
2022-12-16T06:39:52.872Z,-8.20
2022-12-16T06:42:38.809Z,-8.20
2022-12-16T06:45:26.983Z,-8.20
2022-12-16T06:48:15.391Z,-8.10
2022-12-16T06:51:01.942Z,-8.10
2022-12-16T06:53:47.273Z,-8.10
2022-12-16T06:56:32.698Z,-8.10
2022-12-16T06:59:18.012Z,-8.10
2022-12-16T07:02:04.011Z,-8.10
2022-12-16T07:04:49.349Z,-8.10
2022-12-16T07:07:36.223Z,-8.10
2022-12-16T07:10:21.584Z,-8.10
2022-12-16T07:13:06.907Z,-8.10
2022-12-16T07:15:51.945Z,-8.10
2022-12-16T07:18:37.322Z,-8.10
2022-12-16T07:21:23.381Z,-8.10
2022-12-16T07:24:09.826Z,-8.10
2022-12-16T07:26:55.384Z,-8.10
2022-12-16T07:29:40.509Z,-8.20
2022-12-16T07:32:25.861Z,-8.20
2022-12-16T07:35:11.158Z,-8.30
2022-12-16T07:37:57.130Z,-8.30
2022-12-16T07:40:43.679Z,-8.40
2022-12-16T07:43:28.849Z,-8.40
2022-12-16T07:46:14.262Z,-8.40
2022-12-16T07:48:59.838Z,-8.40
2022-12-16T07:51:45.033Z,-8.40
2022-12-16T07:54:30.245Z,-8.30
2022-12-16T07:57:16.873Z,-8.30
2022-12-16T08:00:02.065Z,-8.30
2022-12-16T08:02:47.594Z,-8.30
2022-12-16T08:05:32.973Z,-8.30
2022-12-16T08:08:20.519Z,-8.30
2022-12-16T08:11:05.484Z,-8.30
2022-12-16T08:13:51.993Z,-8.20
2022-12-16T08:16:37.261Z,-8.20
2022-12-16T08:19:22.602Z,-8.10
2022-12-16T08:22:08.030Z,-8.10
2022-12-16T08:27:58.300Z,-8.00
2022-12-16T08:30:44.964Z,-7.90
2022-12-16T08:33:30.333Z,-7.90
2022-12-16T08:36:17.007Z,-7.80
2022-12-16T08:39:02.392Z,-7.80
2022-12-16T08:41:47.550Z,-7.70
2022-12-16T08:44:33.090Z,-7.70
2022-12-16T08:47:19.727Z,-7.60
2022-12-16T08:50:04.970Z,-7.60
2022-12-16T08:52:49.360Z,-7.50
2022-12-16T08:55:34.598Z,-7.50
2022-12-16T08:58:19.771Z,-7.40
2022-12-16T09:01:07.750Z,-7.40
2022-12-16T09:03:54.979Z,-7.30
2022-12-16T09:06:41.232Z,-7.30
2022-12-16T09:09:26.940Z,-7.20
2022-12-16T09:12:11.998Z,-7.10
2022-12-16T09:14:57.326Z,-7.10
2022-12-16T09:17:42.640Z,-7.00
2022-12-16T09:20:29.516Z,-7.00
2022-12-16T09:23:14.915Z,-6.90
2022-12-16T09:26:00.091Z,-6.80
2022-12-16T09:28:45.801Z,-6.80
2022-12-16T09:31:31.055Z,-6.70
2022-12-16T09:34:16.844Z,-6.60
2022-12-16T09:37:03.648Z,-6.60
2022-12-16T09:39:48.853Z,-6.50
2022-12-16T09:42:44.719Z,-6.40
2022-12-16T09:45:35.608Z,-6.40
2022-12-16T09:48:32.118Z,-6.30
2022-12-16T09:51:22.879Z,-6.20
2022-12-16T09:54:13.906Z,-6.10
2022-12-16T09:57:00.496Z,-6.00
2022-12-16T09:59:49.187Z,-5.90
2022-12-16T10:02:37.077Z,-5.80
2022-12-16T10:05:30.263Z,-5.80
2022-12-16T10:08:22.996Z,-5.70
2022-12-16T10:11:14.231Z,-5.60
2022-12-16T10:14:06.965Z,-5.50
2022-12-16T10:17:03.651Z,-5.50
2022-12-16T10:19:55.590Z,-5.40
2022-12-16T10:22:53.945Z,-5.20
2022-12-16T10:25:41.890Z,-5.20
2022-12-16T10:28:35.044Z,-5.10
2022-12-16T10:31:23.079Z,-5.00
2022-12-16T10:34:26.203Z,-4.80
2022-12-16T10:37:15.226Z,-4.80
2022-12-16T10:40:08.998Z,-4.70
2022-12-16T10:42:58.954Z,-4.60
2022-12-16T10:45:48.954Z,-4.50
2022-12-16T10:48:50.061Z,-4.50
2022-12-16T10:51:42.800Z,-4.40
2022-12-16T10:54:44.051Z,-4.30
2022-12-16T10:57:36.506Z,-4.20
2022-12-16T11:00:30.906Z,-4.20
2022-12-16T11:03:36.408Z,-4.10
2022-12-16T11:06:22.618Z,-4.00
2022-12-16T11:09:07.799Z,-3.90
2022-12-16T11:11:53.650Z,-3.80
2022-12-16T11:14:59.547Z,-3.80
2022-12-16T11:17:48.434Z,-3.70
2022-12-16T11:20:38.243Z,-3.60
2022-12-16T11:23:35.752Z,-3.50
2022-12-16T11:26:31.774Z,-3.50
2022-12-16T11:29:30.314Z,-3.50
2022-12-16T11:32:19.851Z,-3.40
2022-12-16T11:35:10.484Z,-3.40
2022-12-16T11:37:58.831Z,-3.30
2022-12-16T11:40:44.692Z,-3.20
2022-12-16T11:43:33.842Z,-3.20
2022-12-16T11:46:38.090Z,-3.10
2022-12-16T11:49:32.607Z,-3.00
2022-12-16T11:52:36.340Z,-2.90
2022-12-16T11:56:04.030Z,-2.90
2022-12-16T11:58:48.216Z,-2.80
2022-12-16T12:01:44.694Z,-2.70
2022-12-16T12:04:31.903Z,-2.60
2022-12-16T12:07:45.670Z,-2.60
2022-12-16T12:11:03.407Z,-2.50
2022-12-16T12:14:03.790Z,-2.50
2022-12-16T12:16:57.489Z,-2.40
2022-12-16T12:19:50.864Z,-2.30
2022-12-16T12:22:50.245Z,-2.30
2022-12-16T12:25:42.369Z,-2.30
2022-12-16T12:28:41.972Z,-2.20
2022-12-16T12:31:39.167Z,-2.20
2022-12-16T12:34:41.786Z,-2.10
2022-12-16T12:37:35.477Z,-2.10
2022-12-16T12:40:34.671Z,-2.10
2022-12-16T12:43:24.330Z,-2.00
2022-12-16T12:46:17.049Z,-2.00
2022-12-16T12:49:08.568Z,-1.90
2022-12-16T12:52:00.705Z,-1.90
2022-12-16T12:54:54.171Z,-1.80
2022-12-16T12:57:44.245Z,-1.80
2022-12-16T13:00:35.837Z,-1.80
2022-12-16T13:03:30.667Z,-1.70
2022-12-16T13:06:17.571Z,-1.70
2022-12-16T13:09:18.210Z,-1.70
2022-12-16T13:12:47.563Z,-1.60
2022-12-16T13:15:54.851Z,-1.60
2022-12-16T13:18:44.062Z,-1.60
2022-12-16T13:22:04.377Z,-1.60
2022-12-16T13:24:59.521Z,-1.50
2022-12-16T13:27:47.065Z,-1.60
2022-12-16T13:30:42.204Z,-1.50
2022-12-16T13:33:43.305Z,-1.50
2022-12-16T13:36:30.274Z,-1.50
2022-12-16T13:39:20.942Z,-1.50
2022-12-16T13:42:16.704Z,-1.50
2022-12-16T13:45:16.335Z,-1.50
2022-12-16T13:48:43.672Z,-1.50
2022-12-16T13:52:08.949Z,-1.50
2022-12-16T13:55:00.781Z,-1.50
2022-12-16T13:57:48.822Z,-1.50
2022-12-16T14:00:38.224Z,-1.50
2022-12-16T14:03:30.619Z,-1.50
2022-12-16T14:06:17.370Z,-1.50
2022-12-16T14:09:04.500Z,-1.50
2022-12-16T14:12:02.320Z,-1.50
2022-12-16T14:14:53.655Z,-1.50
2022-12-16T14:17:40.693Z,-1.60
2022-12-16T14:20:34.483Z,-1.60
2022-12-16T14:23:55.911Z,-1.70
2022-12-16T14:26:40.260Z,-1.70
2022-12-16T14:29:36.724Z,-1.70
2022-12-16T14:32:38.203Z,-1.70
2022-12-16T14:35:30.299Z,-1.70
2022-12-16T14:38:16.202Z,-1.70
2022-12-16T14:41:01.660Z,-1.70
2022-12-16T14:43:48.240Z,-1.80
2022-12-16T14:46:46.041Z,-1.80
2022-12-16T14:49:39.373Z,-1.80
2022-12-16T14:52:35.783Z,-1.80
2022-12-16T14:55:31.070Z,-1.90
2022-12-16T14:58:27.267Z,-1.90
2022-12-16T15:01:21.561Z,-1.90
2022-12-16T15:04:08.469Z,-2.00
2022-12-16T15:06:58.572Z,-2.00
2022-12-16T15:09:47.112Z,-2.10
2022-12-16T15:12:37.566Z,-2.10
2022-12-16T15:15:26.667Z,-2.10
2022-12-16T15:18:15.873Z,-2.20
2022-12-16T15:21:07.238Z,-2.20
2022-12-16T15:23:53.559Z,-2.30
2022-12-16T15:26:40.306Z,-2.30
2022-12-16T15:29:46.000Z,-2.30
2022-12-16T15:33:00.092Z,-2.40
2022-12-16T15:35:55.358Z,-2.40
2022-12-16T15:38:47.434Z,-2.50
2022-12-16T15:41:42.225Z,-2.50
2022-12-16T15:44:35.684Z,-2.60
2022-12-16T15:47:21.795Z,-2.60
2022-12-16T15:50:08.243Z,-2.70
2022-12-16T15:52:57.681Z,-2.70
2022-12-16T15:55:47.661Z,-2.70
2022-12-16T15:58:38.513Z,-2.80
2022-12-16T16:01:25.946Z,-2.80
2022-12-16T16:04:13.534Z,-2.90
2022-12-16T16:07:04.266Z,-2.90
2022-12-16T16:09:52.765Z,-3.00
2022-12-16T16:12:42.028Z,-3.00
2022-12-16T16:15:29.900Z,-3.00
2022-12-16T16:18:17.047Z,-3.10
2022-12-16T16:21:03.294Z,-3.10
2022-12-16T16:23:49.131Z,-3.10
2022-12-16T16:26:38.412Z,-3.20
2022-12-16T16:29:23.764Z,-3.20
2022-12-16T16:32:09.046Z,-3.30
2022-12-16T16:34:54.170Z,-3.30
2022-12-16T16:37:40.372Z,-3.40
2022-12-16T16:40:36.311Z,-3.40
2022-12-16T16:43:22.959Z,-3.50
2022-12-16T16:46:12.744Z,-3.50
2022-12-16T16:48:59.555Z,-3.50
2022-12-16T16:51:44.727Z,-3.60
2022-12-16T16:54:30.004Z,-3.60
2022-12-16T16:57:15.841Z,-3.60
2022-12-16T17:00:02.465Z,-3.70
2022-12-16T17:02:48.658Z,-3.70
2022-12-16T17:05:34.798Z,-3.70
2022-12-16T17:08:19.963Z,-3.80
2022-12-16T17:11:06.166Z,-3.80
2022-12-16T17:13:51.223Z,-3.90
2022-12-16T17:16:37.775Z,-3.90
2022-12-16T17:19:31.672Z,-3.90
2022-12-16T17:22:28.669Z,-4.00
2022-12-16T17:25:14.265Z,-4.00
2022-12-16T17:28:02.570Z,-4.00
2022-12-16T17:30:48.225Z,-4.00
2022-12-16T17:33:35.918Z,-4.00
2022-12-16T17:36:21.902Z,-4.00
2022-12-16T17:39:07.252Z,-4.00
2022-12-16T17:41:52.410Z,-4.00
2022-12-16T17:44:38.204Z,-4.00
2022-12-16T17:47:23.978Z,-4.10
2022-12-16T17:50:10.498Z,-4.00
2022-12-16T17:52:56.344Z,-4.00
2022-12-16T17:55:42.086Z,-4.10
2022-12-16T17:58:30.610Z,-4.10
2022-12-16T18:01:19.861Z,-4.10
2022-12-16T18:04:05.580Z,-4.00
2022-12-16T18:06:52.350Z,-4.00
2022-12-16T18:09:37.764Z,-4.00
2022-12-16T18:12:23.818Z,-4.00
2022-12-16T18:15:09.046Z,-4.00
2022-12-16T18:17:54.308Z,-4.00
2022-12-16T18:20:39.635Z,-4.00
2022-12-16T18:23:26.139Z,-4.00
2022-12-16T18:26:19.087Z,-4.00
2022-12-16T18:29:04.369Z,-4.00
2022-12-16T18:31:49.979Z,-4.00
2022-12-16T18:34:35.567Z,-4.00
2022-12-16T18:37:20.808Z,-4.00
2022-12-16T18:40:07.605Z,-4.00
2022-12-16T18:42:53.214Z,-4.00
2022-12-16T18:45:38.394Z,-4.00
2022-12-16T18:48:24.102Z,-4.00
2022-12-16T18:51:13.412Z,-3.90
2022-12-16T18:53:59.189Z,-3.90
2022-12-16T18:56:45.747Z,-3.90
2022-12-16T18:59:31.344Z,-3.90
2022-12-16T19:02:16.206Z,-3.90
2022-12-16T19:05:01.435Z,-3.90
2022-12-16T19:07:46.563Z,-4.00
2022-12-16T19:10:31.729Z,-3.90
2022-12-16T19:13:18.706Z,-3.90
2022-12-16T19:16:12.743Z,-3.90
2022-12-16T19:18:58.238Z,-4.00
2022-12-16T19:21:48.260Z,-3.90
2022-12-16T19:24:36.906Z,-3.90
2022-12-16T19:27:22.464Z,-3.90
2022-12-16T19:30:09.032Z,-3.90
2022-12-16T19:32:54.739Z,-3.90
2022-12-16T19:35:41.618Z,-3.90
2022-12-16T19:38:30.889Z,-3.90
2022-12-16T19:41:16.167Z,-3.90
2022-12-16T19:44:05.788Z,-3.90
2022-12-16T19:49:59.973Z,-3.90
2022-12-16T19:52:45.165Z,-3.90
2022-12-16T19:55:30.482Z,-3.90
2022-12-16T19:58:15.638Z,-3.90
2022-12-16T20:01:01.042Z,-3.90
2022-12-16T20:03:48.136Z,-3.90
2022-12-16T20:06:33.718Z,-3.90
2022-12-16T20:09:19.400Z,-3.90
2022-12-16T20:12:04.643Z,-3.90
2022-12-16T20:14:50.344Z,-3.90
2022-12-16T20:17:37.162Z,-3.90
2022-12-16T20:20:39.092Z,-3.90
2022-12-16T20:23:24.517Z,-3.90
2022-12-16T20:26:13.443Z,-4.00
2022-12-16T20:28:58.978Z,-4.00
2022-12-16T20:31:49.658Z,-4.00
2022-12-16T20:34:35.543Z,-4.00
2022-12-16T20:37:27.653Z,-4.00
2022-12-16T20:40:24.557Z,-4.00
2022-12-16T20:43:06.244Z,-4.00
2022-12-16T20:45:51.978Z,-4.00
2022-12-16T20:48:37.175Z,-4.00
2022-12-16T20:51:26.828Z,-4.10
2022-12-16T20:54:14.122Z,-4.10
2022-12-16T20:56:59.762Z,-4.10
2022-12-16T20:59:44.760Z,-4.10
2022-12-16T21:02:33.617Z,-4.10
2022-12-16T21:05:19.872Z,-4.20
2022-12-16T21:08:05.477Z,-4.20
2022-12-16T21:10:52.272Z,-4.30
2022-12-16T21:13:37.922Z,-4.30
2022-12-16T21:16:25.404Z,-4.30
2022-12-16T21:19:10.897Z,-4.30
2022-12-16T21:21:56.658Z,-4.30
2022-12-16T21:24:42.125Z,-4.30
2022-12-16T21:27:29.196Z,-4.30
2022-12-16T21:30:14.221Z,-4.20
2022-12-16T21:32:59.902Z,-4.20
2022-12-16T21:35:45.034Z,-4.20
2022-12-16T21:38:31.645Z,-4.30
2022-12-16T21:41:16.758Z,-4.30
2022-12-16T21:44:03.260Z,-4.30
2022-12-16T21:46:48.545Z,-4.30
2022-12-16T21:49:32.963Z,-4.30
2022-12-16T21:52:26.854Z,-4.30
2022-12-16T21:55:12.303Z,-4.30
2022-12-16T21:57:57.533Z,-4.30
2022-12-16T22:00:44.117Z,-4.30
2022-12-16T22:03:29.377Z,-4.30
2022-12-16T22:06:17.302Z,-4.30
2022-12-16T22:09:03.016Z,-4.30
2022-12-16T22:11:48.284Z,-4.30
2022-12-16T22:14:33.626Z,-4.30
2022-12-16T22:17:20.194Z,-4.30
2022-12-16T22:20:05.661Z,-4.30
2022-12-16T22:22:51.006Z,-4.30
2022-12-16T22:25:37.235Z,-4.30
2022-12-16T22:28:22.826Z,-4.30
2022-12-16T22:31:15.504Z,-4.30
2022-12-16T22:34:02.800Z,-4.40
2022-12-16T22:36:20.293Z,-3.90
2022-12-16T22:37:02.679Z,-4.30
2022-12-16T22:39:48.051Z,-4.30
2022-12-16T22:42:33.462Z,-4.30
2022-12-16T22:45:18.846Z,-4.30
2022-12-16T22:48:04.100Z,-4.20
2022-12-16T22:50:51.558Z,-4.20
2022-12-16T22:53:37.201Z,-4.30
2022-12-16T23:40:35.329Z,-4.30
2022-12-16T23:43:20.828Z,-4.30
2022-12-16T23:46:06.306Z,-4.30
2022-12-16T23:48:51.770Z,-4.30
2022-12-16T23:51:37.365Z,-4.30
2022-12-16T23:54:23.011Z,-4.30
2022-12-16T23:57:09.572Z,-4.30
